createdAt,value
2023-03-23T15:58:17.101Z,39.24
2023-03-23T16:00:43.907Z,38.29
2023-03-23T16:03:10.924Z,38.17
2023-03-23T16:05:37.724Z,37.59
2023-03-23T16:08:04.563Z,37.72
2023-03-23T16:10:31.349Z,37.62
2023-03-23T16:12:58.126Z,37.40
2023-03-23T16:15:24.899Z,37.41
2023-03-23T16:17:51.700Z,37.43
2023-03-23T16:20:19.332Z,37.29
2023-03-23T16:22:46.184Z,41.77
2023-03-23T16:25:12.911Z,43.36
2023-03-23T16:27:39.873Z,40.52
2023-03-23T16:30:06.688Z,39.35
2023-03-23T16:34:59.232Z,38.23
2023-03-23T16:37:26.009Z,37.58
2023-03-23T16:39:52.933Z,37.83
2023-03-23T16:42:19.704Z,37.64
2023-03-23T16:44:48.684Z,37.78
2023-03-23T16:47:15.498Z,37.48
2023-03-23T16:49:42.314Z,37.59
2023-03-23T16:52:09.099Z,37.16
2023-03-23T16:54:35.897Z,40.00
2023-03-23T16:57:02.683Z,40.29
2023-03-23T16:59:29.462Z,41.94
2023-03-23T17:02:00.426Z,41.94
2023-03-23T17:04:27.212Z,40.00
2023-03-23T17:06:54.112Z,39.02
2023-03-23T17:09:20.842Z,38.44
2023-03-23T17:11:47.614Z,38.35
2023-03-23T17:14:14.361Z,38.35
2023-03-23T17:16:41.140Z,37.94
2023-03-23T17:19:08.070Z,37.79
2023-03-23T17:21:35.320Z,37.63
2023-03-23T17:24:02.087Z,37.62
2023-03-23T17:26:28.835Z,37.53
2023-03-23T17:28:55.647Z,37.26
2023-03-23T17:31:22.421Z,37.29
2023-03-23T17:33:49.583Z,37.51
2023-03-23T17:36:16.542Z,40.47
2023-03-23T17:38:43.372Z,40.26
2023-03-23T17:41:11.358Z,41.49
2023-03-23T17:43:40.419Z,41.86
2023-03-23T17:46:07.209Z,40.15
2023-03-23T17:48:33.981Z,39.29
2023-03-23T17:51:02.215Z,38.67
2023-03-23T17:53:29.024Z,38.21
2023-03-23T17:55:55.795Z,38.30
2023-03-23T17:58:22.580Z,38.16
2023-03-23T18:00:49.351Z,38.00
2023-03-23T18:03:16.179Z,38.06
2023-03-23T18:05:43.269Z,37.62
2023-03-23T18:08:10.367Z,37.78
2023-03-23T18:10:37.183Z,37.61
2023-03-23T18:13:03.950Z,37.37
2023-03-23T18:15:33.229Z,37.47
2023-03-23T18:18:00.420Z,38.69
2023-03-23T18:20:27.186Z,40.69
2023-03-23T18:22:53.972Z,40.83
2023-03-23T18:25:20.922Z,42.68
2023-03-23T18:27:47.662Z,40.76
2023-03-23T18:30:14.520Z,39.84
2023-03-23T18:32:41.321Z,39.15
2023-03-23T18:35:08.219Z,39.01
2023-03-23T18:37:35.335Z,38.67
2023-03-23T18:40:02.467Z,38.11
2023-03-23T18:42:29.274Z,38.16
2023-03-23T18:44:56.079Z,38.15
2023-03-23T18:47:23.013Z,38.03
2023-03-23T18:49:55.043Z,38.02
2023-03-23T18:52:21.970Z,37.61
2023-03-23T18:54:48.722Z,37.76
2023-03-23T18:57:15.544Z,37.23
2023-03-23T18:59:42.349Z,37.80
2023-03-23T19:02:09.130Z,41.43
2023-03-23T19:04:36.450Z,40.47
2023-03-23T19:07:03.331Z,43.33
2023-03-23T19:09:30.170Z,41.72
2023-03-23T19:11:56.924Z,40.18
2023-03-23T19:14:23.675Z,39.09
2023-03-23T19:16:50.461Z,38.83
2023-03-23T19:19:17.191Z,38.90
2023-03-23T19:21:46.935Z,38.74
2023-03-23T19:24:13.974Z,38.16
2023-03-23T19:26:40.757Z,38.19
2023-03-23T19:31:37.282Z,37.84
2023-03-23T19:34:04.533Z,37.86
2023-03-23T19:36:31.859Z,37.56
2023-03-23T19:39:03.070Z,37.91
2023-03-23T19:41:30.264Z,37.68
2023-03-23T19:43:57.019Z,38.98
2023-03-23T19:46:24.063Z,41.15
2023-03-23T19:48:50.925Z,43.63
2023-03-23T19:51:17.679Z,41.73
2023-03-23T19:53:44.444Z,40.16
2023-03-23T19:56:11.486Z,39.22
2023-03-23T19:58:38.224Z,38.76
2023-03-23T20:01:05.125Z,38.81
2023-03-23T20:03:31.867Z,38.35
2023-03-23T20:05:58.623Z,38.21
2023-03-23T20:08:25.434Z,38.19
2023-03-23T20:10:53.170Z,38.02
2023-03-23T20:13:19.904Z,37.70
2023-03-23T20:15:46.744Z,37.95
2023-03-23T20:18:18.489Z,37.89
2023-03-23T20:20:45.412Z,37.70
2023-03-23T20:23:12.181Z,39.98
2023-03-23T20:25:39.003Z,40.93
2023-03-23T20:28:06.124Z,43.63
2023-03-23T20:30:32.946Z,42.24
2023-03-23T20:33:00.542Z,40.69
2023-03-23T20:35:27.375Z,39.72
2023-03-23T20:37:54.147Z,39.27
2023-03-23T20:40:20.884Z,38.84
2023-03-23T20:42:48.110Z,38.41
2023-03-23T20:45:15.327Z,38.46
2023-03-23T20:47:42.182Z,38.24
2023-03-23T20:50:09.184Z,38.48
2023-03-23T20:52:36.739Z,38.32
2023-03-23T20:55:03.546Z,37.98
2023-03-23T20:57:30.331Z,38.17
2023-03-23T20:59:57.221Z,37.97
2023-03-23T21:02:25.754Z,37.82
2023-03-23T21:04:52.775Z,37.95
2023-03-23T21:07:23.051Z,41.18
2023-03-23T21:09:49.971Z,44.39
2023-03-23T21:12:16.735Z,42.56
2023-03-23T21:14:44.913Z,40.14
2023-03-23T21:17:11.776Z,39.67
2023-03-23T21:19:38.680Z,38.93
2023-03-23T21:22:05.454Z,38.67
2023-03-23T21:24:32.311Z,38.39
2023-03-23T21:26:59.115Z,38.54
2023-03-23T21:29:27.224Z,38.26
2023-03-23T21:32:05.318Z,38.22
2023-03-23T21:34:34.733Z,38.18
2023-03-23T21:37:01.512Z,37.89
2023-03-23T21:39:28.416Z,37.76
2023-03-23T21:41:55.232Z,37.88
2023-03-23T21:44:22.048Z,39.07
2023-03-23T21:46:52.050Z,41.58
2023-03-23T21:49:18.896Z,43.00
2023-03-23T21:51:45.688Z,42.94
2023-03-23T21:54:12.466Z,40.60
2023-03-23T21:56:39.419Z,39.80
2023-03-23T21:59:07.493Z,39.37
2023-03-23T22:01:36.522Z,39.12
2023-03-23T22:04:03.843Z,39.08
2023-03-23T22:06:31.284Z,38.40
2023-03-23T22:08:58.067Z,38.22
2023-03-23T22:11:24.900Z,38.26
2023-03-23T22:13:51.751Z,38.18
2023-03-23T22:16:18.632Z,37.84
2023-03-23T22:18:46.103Z,38.05
2023-03-23T22:21:12.982Z,37.98
2023-03-23T22:23:39.792Z,37.83
2023-03-23T22:26:06.621Z,37.85
2023-03-23T22:28:33.814Z,41.19
2023-03-23T22:31:00.702Z,41.18
2023-03-23T22:33:27.524Z,44.21
2023-03-23T22:35:54.324Z,41.58
2023-03-23T22:38:21.138Z,40.39
2023-03-23T22:40:48.049Z,39.80
2023-03-23T22:43:14.825Z,39.34
2023-03-23T22:45:41.627Z,38.76
2023-03-23T22:48:08.635Z,38.57
2023-03-23T22:50:35.486Z,38.64
2023-03-23T22:53:02.287Z,38.45
2023-03-23T22:55:29.196Z,38.52
2023-03-23T22:57:56.079Z,38.11
2023-03-23T23:00:22.841Z,37.95
2023-03-23T23:02:49.734Z,37.78
2023-03-23T23:05:16.713Z,37.69
2023-03-23T23:07:43.522Z,37.83
2023-03-23T23:10:10.308Z,37.98
2023-03-23T23:12:37.073Z,39.73
2023-03-23T23:15:04.383Z,41.80
2023-03-23T23:17:34.763Z,44.64
2023-03-23T23:20:05.251Z,41.59
2023-03-23T23:22:32.054Z,40.01
2023-03-23T23:24:58.860Z,39.60
2023-03-23T23:27:25.793Z,39.25
2023-03-23T23:29:52.931Z,38.76
2023-03-23T23:32:19.723Z,38.50
2023-03-23T23:34:46.767Z,38.36
2023-03-23T23:37:13.662Z,38.22
2023-03-23T23:39:41.407Z,37.95
2023-03-23T23:42:08.215Z,37.74
2023-03-23T23:44:35.051Z,37.75
2023-03-23T23:47:02.443Z,37.71
2023-03-23T23:49:29.348Z,37.48
2023-03-23T23:51:56.412Z,39.03
2023-03-23T23:54:29.483Z,41.21
2023-03-23T23:56:56.434Z,42.77
2023-03-23T23:59:23.207Z,43.57
